Time;durP1;ratioP1;P1;durP2;ratioP2;P2;SDS_P1;SDS_P2;PMS_P1;PMS_P2;Temp;Humidity;BMP_temperature;BMP_pressure;BME280_temperature;BME280_humidity;BME280_pressure;Samples;Min_cycle;Max_cycle;Signal;HPM_P1;HPM_P2
2021/04/30 00:01:06;;;;;;;;;;;;;;;;;;4993170;28;1089;-55
2021/04/30 00:03:32;;;;;;;;;;;;;;;;;;4964164;28;863;-56
2021/04/30 00:05:57;;;;;;;;;;;;;;;;;;4963879;28;839;-58
2021/04/30 00:08:22;;;;;;;;;;;;;;;;;;4964180;28;883;-56
2021/04/30 00:10:48;;;;;;;;;;;;;;;;;;4964306;28;1948;-55
2021/04/30 00:13:14;;;;;;;;;;;;;;;;;;4963113;28;1246;-58
2021/04/30 00:15:39;;;;;;;;;;;;;;;;;;4995806;28;906;-57
2021/04/30 00:18:05;;;;;;;;;;;;;;;;;;4964105;28;921;-56
2021/04/30 00:20:31;;;;;;;;;;;;;;;;;;4963705;28;894;-56
2021/04/30 00:22:56;;;;;;;;;;;;;;;;;;4963867;28;843;-59
2021/04/30 00:25:21;;;;;;;;;;;;;;;;;;4964229;28;823;-55
2021/04/30 00:27:47;;;;;;;;;;;;;;;;;;4963339;28;835;-57
2021/04/30 00:30:14;;;;;;;;;;;;;;;;;;4966738;28;1890;-56
2021/04/30 00:32:39;;;;;;;;;;;;;;;;;;4967756;28;883;-58
2021/04/30 00:35:05;;;;;;;;;;;;;;;;;;4967376;28;835;-58
2021/04/30 00:37:30;;;;;;;;;;;;;;;;;;4967008;28;816;-57
2021/04/30 00:39:56;;;;;;;;;;;;;;;;;;4967274;28;950;-58
2021/04/30 00:42:21;;;;;;;;;;;;;;;;;;4967368;28;1217;-60
2021/04/30 00:44:46;;;;;;;;;;;;;;;;;;4967433;28;866;-58
2021/04/30 00:47:32;;;;;;;;;;;;;;;;;;4966715;28;886;-57
2021/04/30 00:50:00;;;;;;;;;;;;;;;;;;4966420;28;1902;-59
2021/04/30 00:52:25;;;;;;;;;;;;;;;;;;4965739;28;843;-57
2021/04/30 00:54:51;;;;;;;;;;;;;;;;;;4966514;28;934;-59
2021/04/30 00:57:16;;;;;;;;;;;;;;;;;;4968104;28;875;-57
2021/04/30 00:59:42;;;;;;;;;;;;;;;;;;4967013;28;895;-58
2021/04/30 01:02:07;;;;;;;;;;;;;;;;;;5058037;28;1087;-59
2021/04/30 01:04:33;;;;;;;;;;;;;;;;;;5058491;28;1052;-59
2021/04/30 01:06:58;;;;;;;;;;;;;;;;;;5064601;28;1047;-58
2021/04/30 01:09:23;;;;;;;;;;;;;;;;;;5068309;28;894;-59
2021/04/30 01:11:49;;;;;;;;;;;;;;;;;;5047916;28;1890;-56
2021/04/30 01:14:15;;;;;;;;;;;;;;;;;;4967215;28;839;-58
2021/04/30 01:16:40;;;;;;;;;;;;;;;;;;4966094;28;843;-58
2021/04/30 01:19:06;;;;;;;;;;;;;;;;;;4966880;28;807;-57
2021/04/30 01:21:31;;;;;;;;;;;;;;;;;;4966969;28;799;-58
2021/04/30 01:23:56;;;;;;;;;;;;;;;;;;4967102;28;831;-56
2021/04/30 01:26:22;;;;;;;;;;;;;;;;;;4966887;28;839;-58
2021/04/30 01:28:48;;;;;;;;;;;;;;;;;;4967137;28;850;-59
2021/04/30 01:31:14;;;;;;;;;;;;;;;;;;4966725;28;1965;-57
2021/04/30 01:33:39;;;;;;;;;;;;;;;;;;4997182;28;1312;-58
2021/04/30 01:36:05;;;;;;;;;;;;;;;;;;4965724;28;902;-61
2021/04/30 01:38:31;;;;;;;;;;;;;;;;;;4966281;28;1068;-61
2021/04/30 01:40:56;;;;;;;;;;;;;;;;;;4965658;28;854;-61
2021/04/30 01:43:24;;;;;;;;;;;;;;;;;;4949006;28;1360;-57
2021/04/30 01:45:54;;;;;;;;;;;;;;;;;;4947185;28;863;-59
2021/04/30 01:48:21;;;;;;;;;;;;;;;;;;4947057;29;812;-61
2021/04/30 01:50:47;;;;;;;;;;;;;;;;;;4947653;29;1899;-59
2021/04/30 01:53:13;;;;;;;;;;;;;;;;;;4947340;28;812;-60
2021/04/30 01:55:39;;;;;;;;;;;;;;;;;;4948028;29;927;-60
2021/04/30 01:58:04;;;;;;;;;;;;;;;;;;4946991;29;914;-58
2021/04/30 02:00:30;;;;;;;;;;;;;;;;;;4973520;28;1193;-61
2021/04/30 02:02:57;;;;;;;;;;;;;;;;;;5067866;28;843;-61
2021/04/30 02:05:24;;;;;;;;;;;;;;;;;;5067701;28;918;-61
2021/04/30 02:07:50;;;;;;;;;;;;;;;;;;5067638;28;1107;-57
2021/04/30 02:10:22;;;;;;;;;;;;;;;;;;5068197;28;1902;-63
2021/04/30 02:12:48;;;;;;;;;;;;;;;;;;4989587;28;1340;-62
2021/04/30 02:15:15;;;;;;;;;;;;;;;;;;4965777;28;870;-58
2021/04/30 02:17:40;;;;;;;;;;;;;;;;;;4966026;28;828;-60
2021/04/30 02:20:07;;;;;;;;;;;;;;;;;;4965953;28;835;-60
2021/04/30 02:22:33;;;;;;;;;;;;;;;;;;4966119;28;878;-62
2021/04/30 02:24:58;;;;;;;;;;;;;;;;;;4997007;28;921;-61
2021/04/30 02:27:23;;;;;;;;;;;;;;;;;;4966123;28;942;-59
2021/04/30 02:29:49;;;;;;;;;;;;;;;;;;4966868;28;1894;-57
2021/04/30 02:32:15;;;;;;;;;;;;;;;;;;4959672;28;1536;-63
2021/04/30 02:34:40;;;;;;;;;;;;;;;;;;4964480;28;1120;-60
2021/04/30 02:37:06;;;;;;;;;;;;;;;;;;4965781;28;1081;-60
2021/04/30 02:39:32;;;;;;;;;;;;;;;;;;4965177;28;1029;-57
2021/04/30 02:41:57;;;;;;;;;;;;;;;;;;4965057;28;1272;-57
2021/04/30 02:44:23;;;;;;;;;;;;;;;;;;4965511;28;1291;-58
2021/04/30 02:46:48;;;;;;;;;;;;;;;;;;4966380;28;1093;-57
2021/04/30 02:49:16;;;;;;;;;;;;;;;;;;4964800;28;1193;-58
2021/04/30 02:51:41;;;;;;;;;;;;;;;;;;4959788;28;1968;-56
2021/04/30 02:54:07;;;;;;;;;;;;;;;;;;4961036;28;1081;-57
2021/04/30 02:56:33;;;;;;;;;;;;;;;;;;4965970;28;1009;-56
2021/04/30 02:59:01;;;;;;;;;;;;;;;;;;4965001;28;1069;-58
2021/04/30 03:01:27;;;;;;;;;;;;;;;;;;4995966;28;1040;-56
2021/04/30 03:03:52;;;;;;;;;;;;;;;;;;4964614;28;1069;-59
2021/04/30 03:06:17;;;;;;;;;;;;;;;;;;4965621;28;1069;-57
2021/04/30 03:08:43;;;;;;;;;;;;;;;;;;4960508;28;1160;-57
2021/04/30 03:11:08;;;;;;;;;;;;;;;;;;4959812;28;1882;-55
2021/04/30 03:13:33;;;;;;;;;;;;;;;;;;4979321;28;1241;-55
2021/04/30 03:15:59;;;;;;;;;;;;;;;;;;4964828;28;1152;-56
2021/04/30 03:18:24;;;;;;;;;;;;;;;;;;4959695;28;1085;-59
2021/04/30 03:20:50;;;;;;;;;;;;;;;;;;4971476;28;971;-57
2021/04/30 03:23:15;;;;;;;;;;;;;;;;;;4965575;28;954;-57
2021/04/30 03:25:41;;;;;;;;;;;;;;;;;;4965015;28;1143;-57
2021/04/30 03:28:06;;;;;;;;;;;;;;;;;;4965178;28;1133;-60
2021/04/30 03:30:31;;;;;;;;;;;;;;;;;;4964526;28;1890;-57
2021/04/30 03:32:57;;;;;;;;;;;;;;;;;;4964542;28;1156;-56
2021/04/30 03:35:22;;;;;;;;;;;;;;;;;;4964675;28;1140;-57
2021/04/30 03:37:48;;;;;;;;;;;;;;;;;;4965312;28;1120;-59
2021/04/30 03:40:14;;;;;;;;;;;;;;;;;;4964394;28;1077;-58
2021/04/30 03:42:39;;;;;;;;;;;;;;;;;;4964298;28;1340;-57
2021/04/30 03:45:05;;;;;;;;;;;;;;;;;;4964679;28;1196;-56
2021/04/30 03:47:31;;;;;;;;;;;;;;;;;;4963895;28;1048;-60
2021/04/30 03:49:56;;;;;;;;;;;;;;;;;;4963868;28;1902;-59
2021/04/30 03:52:21;;;;;;;;;;;;;;;;;;4964238;28;1089;-58
2021/04/30 03:54:47;;;;;;;;;;;;;;;;;;4965229;28;1069;-59
2021/04/30 03:57:12;;;;;;;;;;;;;;;;;;4965410;28;1080;-58
2021/04/30 03:59:37;;;;;;;;;;;;;;;;;;4964072;28;950;-57
2021/04/30 04:02:03;;;;;;;;;;;;;;;;;;4981363;28;1176;-59
2021/04/30 04:04:28;;;;;;;;;;;;;;;;;;4965464;28;1129;-59
2021/04/30 04:06:54;;;;;;;;;;;;;;;;;;4967660;28;1163;-57
2021/04/30 04:09:19;;;;;;;;;;;;;;;;;;4968300;28;1147;-56
2021/04/30 04:11:46;;;;;;;;;;;;;;;;;;4967939;28;1969;-59
2021/04/30 04:14:11;;;;;;;;;;;;;;;;;;4967425;28;1152;-61
2021/04/30 04:16:36;;;;;;;;;;;;;;;;;;4966651;28;1064;-59
2021/04/30 04:19:02;;;;;;;;;;;;;;;;;;4967520;28;1121;-59
2021/04/30 04:21:27;;;;;;;;;;;;;;;;;;4962098;28;1081;-57
2021/04/30 04:23:53;;;;;;;;;;;;;;;;;;4966662;28;950;-59
2021/04/30 04:26:19;;;;;;;;;;;;;;;;;;4968202;28;1006;-60
2021/04/30 04:28:44;;;;;;;;;;;;;;;;;;4967203;28;1080;-58
2021/04/30 04:31:10;;;;;;;;;;;;;;;;;;4966524;28;1953;-61
2021/04/30 04:33:35;;;;;;;;;;;;;;;;;;4966981;28;1093;-60
2021/04/30 04:36:00;;;;;;;;;;;;;;;;;;4967358;28;1061;-60
2021/04/30 04:38:28;;;;;;;;;;;;;;;;;;4966786;28;1089;-61
2021/04/30 04:40:54;;;;;;;;;;;;;;;;;;4967055;28;1172;-58
2021/04/30 04:43:20;;;;;;;;;;;;;;;;;;4967394;28;1050;-60
2021/04/30 04:45:46;;;;;;;;;;;;;;;;;;4967646;28;1085;-61
2021/04/30 04:48:11;;;;;;;;;;;;;;;;;;4966712;28;1081;-59
2021/04/30 04:50:36;;;;;;;;;;;;;;;;;;4966195;28;1910;-61
2021/04/30 04:53:02;;;;;;;;;;;;;;;;;;4966934;28;1132;-62
2021/04/30 04:55:28;;;;;;;;;;;;;;;;;;4966560;28;1064;-60
2021/04/30 04:57:53;;;;;;;;;;;;;;;;;;4966184;28;1093;-62
2021/04/30 05:00:19;;;;;;;;;;;;;;;;;;4980169;28;1280;-61
2021/04/30 05:02:44;;;;;;;;;;;;;;;;;;4966479;28;1376;-61
2021/04/30 05:05:10;;;;;;;;;;;;;;;;;;4966673;28;1002;-62
2021/04/30 05:07:35;;;;;;;;;;;;;;;;;;4966543;28;1125;-62
2021/04/30 05:10:01;;;;;;;;;;;;;;;;;;4966765;28;1960;-58
2021/04/30 05:12:26;;;;;;;;;;;;;;;;;;4980961;28;1085;-56
2021/04/30 05:14:52;;;;;;;;;;;;;;;;;;4965543;28;954;-62
2021/04/30 05:17:17;;;;;;;;;;;;;;;;;;4967128;28;1140;-61
2021/04/30 05:19:43;;;;;;;;;;;;;;;;;;4966227;28;1081;-59
2021/04/30 05:22:11;;;;;;;;;;;;;;;;;;4966626;28;1297;-57
2021/04/30 05:24:37;;;;;;;;;;;;;;;;;;4966380;28;950;-56
2021/04/30 05:27:06;;;;;;;;;;;;;;;;;;4965946;28;1139;-58
2021/04/30 05:29:32;;;;;;;;;;;;;;;;;;4966481;28;1164;-61
2021/04/30 05:31:58;;;;;;;;;;;;;;;;;;4965917;28;1899;-59
2021/04/30 05:34:23;;;;;;;;;;;;;;;;;;4966284;28;1156;-55
2021/04/30 05:36:48;;;;;;;;;;;;;;;;;;4967116;28;1117;-60
2021/04/30 05:39:14;;;;;;;;;;;;;;;;;;4966258;28;1069;-59
2021/04/30 05:41:39;;;;;;;;;;;;;;;;;;4965348;28;1308;-61
2021/04/30 05:44:04;;;;;;;;;;;;;;;;;;4966370;28;1068;-59
2021/04/30 05:46:30;;;;;;;;;;;;;;;;;;4966325;28;1155;-60
2021/04/30 05:48:55;;;;;;;;;;;;;;;;;;4964657;28;1114;-61
2021/04/30 05:51:21;;;;;;;;;;;;;;;;;;4966283;28;1914;-59
2021/04/30 05:53:46;;;;;;;;;;;;;;;;;;4967146;28;962;-60
2021/04/30 05:56:12;;;;;;;;;;;;;;;;;;4965731;28;1077;-60
2021/04/30 05:58:37;;;;;;;;;;;;;;;;;;4967206;28;1155;-59
2021/04/30 06:01:02;;;;;;;;;;;;;;;;;;5010500;28;1159;-57
2021/04/30 06:03:28;;;;;;;;;;;;;;;;;;4962883;28;1881;-61
2021/04/30 06:05:53;;;;;;;;;;;;;;;;;;4958373;28;1014;-58
2021/04/30 06:08:19;;;;;;;;;;;;;;;;;;4965349;28;1081;-57
2021/04/30 06:10:44;;;;;;;;;;;;;;;;;;4973481;28;1890;-61
2021/04/30 06:13:10;;;;;;;;;;;;;;;;;;4971873;28;1122;-59
2021/04/30 06:15:35;;;;;;;;;;;;;;;;;;4972799;28;1158;-58
2021/04/30 06:18:01;;;;;;;;;;;;;;;;;;4972368;28;1183;-59
2021/04/30 06:20:26;;;;;;;;;;;;;;;;;;4966170;28;1076;-57
2021/04/30 06:22:52;;;;;;;;;;;;;;;;;;4973187;28;1124;-59
2021/04/30 06:25:17;;;;;;;;;;;;;;;;;;4972134;28;1090;-60
2021/04/30 06:27:42;;;;;;;;;;;;;;;;;;4971123;28;1280;-58
2021/04/30 06:30:08;;;;;;;;;;;;;;;;;;5037945;28;1901;-57
2021/04/30 06:32:34;;;;;;;;;;;;;;;;;;4966077;28;1152;-57
2021/04/30 06:34:59;;;;;;;;;;;;;;;;;;4965324;28;1077;-58
2021/04/30 06:37:25;;;;;;;;;;;;;;;;;;4965348;28;1093;-56
2021/04/30 06:39:52;;;;;;;;;;;;;;;;;;4957858;28;1002;-57
2021/04/30 06:42:17;;;;;;;;;;;;;;;;;;4966676;28;1139;-56
2021/04/30 06:44:42;;;;;;;;;;;;;;;;;;4965359;28;1100;-61
2021/04/30 06:47:08;;;;;;;;;;;;;;;;;;4965602;28;1013;-57
2021/04/30 06:49:33;;;;;;;;;;;;;;;;;;5027603;28;1234;-58
2021/04/30 06:51:58;;;;;;;;;;;;;;;;;;5004889;28;1982;-57
2021/04/30 06:54:24;;;;;;;;;;;;;;;;;;5006819;28;1211;-60
2021/04/30 06:56:49;;;;;;;;;;;;;;;;;;4966796;28;1201;-57
2021/04/30 06:59:14;;;;;;;;;;;;;;;;;;4951776;28;1188;-57
2021/04/30 07:01:40;;;;;;;;;;;;;;;;;;4967431;28;1175;-57
2021/04/30 07:04:07;;;;;;;;;;;;;;;;;;4955745;28;1163;-57
2021/04/30 07:06:33;;;;;;;;;;;;;;;;;;4950965;28;1280;-57
2021/04/30 07:08:58;;;;;;;;;;;;;;;;;;4950583;28;1161;-57
2021/04/30 07:11:23;;;;;;;;;;;;;;;;;;4954548;28;1899;-59
2021/04/30 07:13:49;;;;;;;;;;;;;;;;;;4980018;28;1152;-58
2021/04/30 07:16:14;;;;;;;;;;;;;;;;;;4964497;28;1167;-59
2021/04/30 07:18:39;;;;;;;;;;;;;;;;;;4964670;28;1092;-59
2021/04/30 07:21:05;;;;;;;;;;;;;;;;;;4964961;28;1092;-58
2021/04/30 07:23:33;;;;;;;;;;;;;;;;;;4958885;28;1546;-60
2021/04/30 07:25:58;;;;;;;;;;;;;;;;;;4960395;28;1021;-60
2021/04/30 07:28:24;;;;;;;;;;;;;;;;;;4962519;28;1084;-60
2021/04/30 07:30:50;;;;;;;;;;;;;;;;;;4955903;28;1919;-59
2021/04/30 07:33:15;;;;;;;;;;;;;;;;;;4964531;28;1132;-59
2021/04/30 07:35:41;;;;;;;;;;;;;;;;;;4964479;28;1207;-60
2021/04/30 07:38:07;;;;;;;;;;;;;;;;;;4964098;28;1227;-58
2021/04/30 07:40:32;;;;;;;;;;;;;;;;;;4964689;28;927;-58
2021/04/30 07:42:58;;;;;;;;;;;;;;;;;;4964816;28;1069;-59
2021/04/30 07:45:23;;;;;;;;;;;;;;;;;;4964569;28;1081;-57
2021/04/30 07:47:49;;;;;;;;;;;;;;;;;;4965259;28;1148;-60
2021/04/30 07:50:14;;;;;;;;;;;;;;;;;;4964240;28;2255;-60
2021/04/30 07:52:40;;;;;;;;;;;;;;;;;;4956431;28;1687;-58
2021/04/30 07:55:05;;;;;;;;;;;;;;;;;;4964222;28;1664;-60
2021/04/30 07:57:33;;;;;;;;;;;;;;;;;;4964099;28;1517;-60
2021/04/30 07:59:59;;;;;;;;;;;;;;;;;;4964548;28;1446;-57
2021/04/30 08:02:24;;;;;;;;;;;;;;;;;;5003212;28;1175;-60
2021/04/30 08:04:49;;;;;;;;;;;;;;;;;;4965101;28;1097;-68
2021/04/30 08:07:15;;;;;;;;;;;;;;;;;;4963916;28;1043;-58
2021/04/30 08:09:41;;;;;;;;;;;;;;;;;;4964100;28;1402;-55
2021/04/30 08:12:06;;;;;;;;;;;;;;;;;;4963627;28;1882;-58
2021/04/30 08:14:32;;;;;;;;;;;;;;;;;;4963919;28;1088;-56
2021/04/30 08:16:57;;;;;;;;;;;;;;;;;;4959928;28;1109;-56
2021/04/30 08:19:24;;;;;;;;;;;;;;;;;;4946710;28;1575;-56
2021/04/30 08:21:49;;;;;;;;;;;;;;;;;;4977185;28;1758;-59
2021/04/30 08:24:15;;;;;;;;;;;;;;;;;;4978806;28;1227;-56
2021/04/30 08:26:40;;;;;;;;;;;;;;;;;;4977688;28;1403;-59
2021/04/30 08:29:06;;;;;;;;;;;;;;;;;;4983712;28;1394;-57
2021/04/30 08:31:32;;;;;;;;;;;;;;;;;;4978206;28;1890;-59
2021/04/30 08:33:57;;;;;;;;;;;;;;;;;;4977044;28;871;-56
2021/04/30 08:36:22;;;;;;;;;;;;;;;;;;4973584;28;1217;-58
2021/04/30 08:38:48;;;;;;;;;;;;;;;;;;5008770;28;1333;-59
2021/04/30 08:41:15;;;;;;;;;;;;;;;;;;5012599;28;981;-56
2021/04/30 08:43:40;;;;;;;;;;;;;;;;;;5008778;28;957;-56
2021/04/30 08:46:06;;;;;;;;;;;;;;;;;;5010973;28;878;-57
2021/04/30 08:48:32;;;;;;;;;;;;;;;;;;5010518;28;890;-57
2021/04/30 08:50:58;;;;;;;;;;;;;;;;;;5013992;28;1974;-58
2021/04/30 08:53:23;;;;;;;;;;;;;;;;;;5014503;28;963;-55
2021/04/30 08:55:51;;;;;;;;;;;;;;;;;;5025467;28;1432;-59
2021/04/30 08:58:22;;;;;;;;;;;;;;;;;;4967365;28;1460;-57
2021/04/30 09:00:48;;;;;;;;;;;;;;;;;;4984918;28;1099;-58
2021/04/30 09:03:15;;;;;;;;;;;;;;;;;;4967117;28;1010;-58
2021/04/30 09:05:45;;;;;;;;;;;;;;;;;;4982973;28;891;-58
2021/04/30 09:08:10;;;;;;;;;;;;;;;;;;4966228;28;1253;-57
2021/04/30 09:10:37;;;;;;;;;;;;;;;;;;4987725;28;1971;-60
2021/04/30 09:13:09;;;;;;;;;;;;;;;;;;5016001;28;847;-57
2021/04/30 09:15:35;;;;;;;;;;;;;;;;;;5016048;28;855;-58
2021/04/30 09:18:20;;;;;;;;;;;;;;;;;;5012443;28;1475;-57
2021/04/30 09:20:47;;;;;;;;;;;;;;;;;;5015901;28;1033;-58
2021/04/30 09:23:31;;;;;;;;;;;;;;;;;;5014797;28;1224;-56
2021/04/30 09:25:57;;;;;;;;;;;;;;;;;;5013553;28;1373;-57
2021/04/30 09:28:23;;;;;;;;;;;;;;;;;;5014491;28;1104;-56
2021/04/30 09:30:48;;;;;;;;;;;;;;;;;;5014903;28;1963;-56
2021/04/30 09:33:16;;;;;;;;;;;;;;;;;;5016036;28;1041;-56
2021/04/30 09:35:45;;;;;;;;;;;;;;;;;;5006871;28;938;-58
2021/04/30 09:38:36;;;;;;;;;;;;;;;;;;4966587;28;1527;-57
2021/04/30 09:41:02;;;;;;;;;;;;;;;;;;4959929;28;1431;-58
2021/04/30 09:43:40;;;;;;;;;;;;;;;;;;4964321;28;1272;-58
2021/04/30 09:46:24;;;;;;;;;;;;;;;;;;4971430;28;970;-59
2021/04/30 09:48:57;;;;;;;;;;;;;;;;;;4987906;28;1110;-59
2021/04/30 09:51:55;;;;;;;;;;;;;;;;;;5009827;28;1993;-59
2021/04/30 09:54:26;;;;;;;;;;;;;;;;;;4993569;28;1367;-59
2021/04/30 09:57:04;;;;;;;;;;;;;;;;;;5009912;28;1051;-59
2021/04/30 09:59:30;;;;;;;;;;;;;;;;;;5005198;28;1118;-58
2021/04/30 10:02:06;;;;;;;;;;;;;;;;;;5011781;28;1055;-58
2021/04/30 10:04:35;;;;;;;;;;;;;;;;;;5018844;28;979;-59
2021/04/30 10:07:01;;;;;;;;;;;;;;;;;;4984565;28;1170;-59
2021/04/30 10:09:30;;;;;;;;;;;;;;;;;;4985862;28;1130;-59
2021/04/30 10:11:56;;;;;;;;;;;;;;;;;;5012024;28;1965;-59
2021/04/30 10:14:24;;;;;;;;;;;;;;;;;;5010857;28;1044;-60
2021/04/30 10:16:50;;;;;;;;;;;;;;;;;;5008206;28;1671;-59
2021/04/30 10:19:15;;;;;;;;;;;;;;;;;;5015170;28;1465;-59
2021/04/30 10:21:41;;;;;;;;;;;;;;;;;;4982869;28;2367;-59
2021/04/30 10:24:10;;;;;;;;;;;;;;;;;;4960394;28;1365;-59
2021/04/30 10:26:36;;;;;;;;;;;;;;;;;;4957149;28;1338;-59
2021/04/30 10:29:03;;;;;;;;;;;;;;;;;;4950540;28;1611;-59
2021/04/30 10:31:30;;;;;;;;;;;;;;;;;;4964991;28;1886;-59
2021/04/30 10:34:05;;;;;;;;;;;;;;;;;;4964775;28;1536;-59
2021/04/30 10:36:38;;;;;;;;;;;;;;;;;;4964536;28;1274;-59
2021/04/30 10:39:04;;;;;;;;;;;;;;;;;;4964600;28;1080;-59
2021/04/30 10:41:31;;;;;;;;;;;;;;;;;;4965016;28;1021;-58
2021/04/30 10:44:12;;;;;;;;;;;;;;;;;;4964592;28;1221;-59
2021/04/30 10:46:38;;;;;;;;;;;;;;;;;;4965098;28;1085;-58
2021/04/30 10:49:03;;;;;;;;;;;;;;;;;;5003446;28;1089;-59
2021/04/30 10:51:28;;;;;;;;;;;;;;;;;;5015666;28;1981;-59
2021/04/30 10:54:14;;;;;;;;;;;;;;;;;;5013117;28;1106;-58
2021/04/30 10:56:39;;;;;;;;;;;;;;;;;;5012858;28;1037;-58
2021/04/30 10:59:07;;;;;;;;;;;;;;;;;;4971678;28;906;-58
2021/04/30 11:01:35;;;;;;;;;;;;;;;;;;5006973;28;1446;-59
2021/04/30 11:04:09;;;;;;;;;;;;;;;;;;4953378;28;1159;-59
2021/04/30 11:06:36;;;;;;;;;;;;;;;;;;4963785;28;1245;-59
2021/04/30 11:09:06;;;;;;;;;;;;;;;;;;4957337;28;2386;-59
2021/04/30 11:11:36;;;;;;;;;;;;;;;;;;4965581;28;1898;-59
2021/04/30 11:14:19;;;;;;;;;;;;;;;;;;4966479;28;1238;-59
2021/04/30 11:16:45;;;;;;;;;;;;;;;;;;4960694;28;1338;-59
2021/04/30 11:19:10;;;;;;;;;;;;;;;;;;4964280;28;1160;-59
2021/04/30 11:21:40;;;;;;;;;;;;;;;;;;4961884;28;1133;-59
2021/04/30 11:24:25;;;;;;;;;;;;;;;;;;4951319;28;1250;-59
2021/04/30 11:26:50;;;;;;;;;;;;;;;;;;4963575;28;1681;-59
2021/04/30 11:29:16;;;;;;;;;;;;;;;;;;4963461;28;1084;-58
2021/04/30 11:31:41;;;;;;;;;;;;;;;;;;4958846;28;1899;-58
2021/04/30 11:34:15;;;;;;;;;;;;;;;;;;4979214;28;1219;-59
2021/04/30 11:36:41;;;;;;;;;;;;;;;;;;4963660;28;1368;-59
2021/04/30 11:39:16;;;;;;;;;;;;;;;;;;4963991;28;1235;-59
2021/04/30 11:41:42;;;;;;;;;;;;;;;;;;4961961;28;1182;-59
2021/04/30 11:44:08;;;;;;;;;;;;;;;;;;4964584;28;1136;-59
2021/04/30 11:46:34;;;;;;;;;;;;;;;;;;5012061;28;1073;-59
2021/04/30 11:49:01;;;;;;;;;;;;;;;;;;5022761;28;1261;-58
2021/04/30 11:51:26;;;;;;;;;;;;;;;;;;5025814;28;1887;-58
2021/04/30 11:53:56;;;;;;;;;;;;;;;;;;5046340;28;1094;-60
2021/04/30 11:56:28;;;;;;;;;;;;;;;;;;4974447;28;1143;-59
2021/04/30 11:58:54;;;;;;;;;;;;;;;;;;5025702;28;953;-59
2021/04/30 12:01:19;;;;;;;;;;;;;;;;;;5044473;28;1273;-58
2021/04/30 12:03:46;;;;;;;;;;;;;;;;;;4971595;28;1131;-59
2021/04/30 12:06:15;;;;;;;;;;;;;;;;;;5008096;28;1069;-59
2021/04/30 12:08:41;;;;;;;;;;;;;;;;;;4971609;28;1109;-59
2021/04/30 12:11:07;;;;;;;;;;;;;;;;;;4964184;28;1902;-59
2021/04/30 12:13:38;;;;;;;;;;;;;;;;;;4987236;28;1031;-59
2021/04/30 12:16:11;;;;;;;;;;;;;;;;;;4979718;28;1104;-59
2021/04/30 12:18:37;;;;;;;;;;;;;;;;;;4983241;28;1080;-59
2021/04/30 12:21:02;;;;;;;;;;;;;;;;;;4970942;28;1191;-59
2021/04/30 12:23:27;;;;;;;;;;;;;;;;;;4963606;28;1089;-59
2021/04/30 12:25:54;;;;;;;;;;;;;;;;;;4964859;28;1827;-59
2021/04/30 12:28:22;;;;;;;;;;;;;;;;;;4967624;28;1072;-59
2021/04/30 12:30:58;;;;;;;;;;;;;;;;;;4967392;28;1965;-59
2021/04/30 12:33:27;;;;;;;;;;;;;;;;;;4966814;28;1288;-59
2021/04/30 12:35:54;;;;;;;;;;;;;;;;;;4962992;28;1318;-59
2021/04/30 12:38:20;;;;;;;;;;;;;;;;;;4990207;28;978;-58
2021/04/30 12:40:45;;;;;;;;;;;;;;;;;;4966910;28;1128;-59
2021/04/30 12:43:10;;;;;;;;;;;;;;;;;;4966835;28;1128;-59
2021/04/30 12:45:36;;;;;;;;;;;;;;;;;;4967077;28;1023;-59
2021/04/30 12:48:01;;;;;;;;;;;;;;;;;;4962831;28;1176;-59
2021/04/30 12:50:27;;;;;;;;;;;;;;;;;;4962532;28;1914;-59
2021/04/30 12:52:54;;;;;;;;;;;;;;;;;;4966788;28;954;-59
2021/04/30 12:55:24;;;;;;;;;;;;;;;;;;4967804;28;1156;-59
2021/04/30 12:58:08;;;;;;;;;;;;;;;;;;4996405;28;1698;-59
2021/04/30 13:00:54;;;;;;;;;;;;;;;;;;5018205;28;1691;-59
2021/04/30 13:03:19;;;;;;;;;;;;;;;;;;4984175;28;1581;-59
2021/04/30 13:05:46;;;;;;;;;;;;;;;;;;4958225;28;1584;-59
2021/04/30 13:08:12;;;;;;;;;;;;;;;;;;4964353;28;1555;-59
2021/04/30 13:10:37;;;;;;;;;;;;;;;;;;4966062;28;1969;-59
2021/04/30 13:13:04;;;;;;;;;;;;;;;;;;4965901;28;1500;-59
2021/04/30 13:15:30;;;;;;;;;;;;;;;;;;4965117;28;1547;-59
2021/04/30 13:17:57;;;;;;;;;;;;;;;;;;4965529;28;988;-59
2021/04/30 13:20:27;;;;;;;;;;;;;;;;;;4984230;28;1194;-60
2021/04/30 13:23:18;;;;;;;;;;;;;;;;;;5012814;28;1559;-59
2021/04/30 13:25:43;;;;;;;;;;;;;;;;;;5003318;28;1300;-60
2021/04/30 13:28:18;;;;;;;;;;;;;;;;;;5011505;28;1142;-58
2021/04/30 13:30:45;;;;;;;;;;;;;;;;;;5009782;28;1890;-59
2021/04/30 13:33:33;;;;;;;;;;;;;;;;;;5011412;28;1390;-58
2021/04/30 13:36:02;;;;;;;;;;;;;;;;;;5013476;28;1324;-59
2021/04/30 13:38:28;;;;;;;;;;;;;;;;;;4996911;28;1481;-59
2021/04/30 13:41:16;;;;;;;;;;;;;;;;;;5006433;28;1177;-59
2021/04/30 13:43:41;;;;;;;;;;;;;;;;;;5012970;28;898;-59
2021/04/30 13:46:10;;;;;;;;;;;;;;;;;;5013827;28;954;-59
2021/04/30 13:48:36;;;;;;;;;;;;;;;;;;5015502;28;799;-59
2021/04/30 13:51:01;;;;;;;;;;;;;;;;;;5007727;28;1981;-59
2021/04/30 13:53:27;;;;;;;;;;;;;;;;;;5014432;28;1037;-59
2021/04/30 13:55:52;;;;;;;;;;;;;;;;;;5013039;28;954;-59
2021/04/30 13:58:18;;;;;;;;;;;;;;;;;;5016305;28;958;-59
2021/04/30 14:00:43;;;;;;;;;;;;;;;;;;5005813;28;1034;-59
2021/04/30 14:03:09;;;;;;;;;;;;;;;;;;5011003;28;1171;-60
2021/04/30 14:05:34;;;;;;;;;;;;;;;;;;5010262;28;1402;-59
2021/04/30 14:07:59;;;;;;;;;;;;;;;;;;5011361;28;1116;-59
2021/04/30 14:10:25;;;;;;;;;;;;;;;;;;5009297;28;1889;-59
2021/04/30 14:12:50;;;;;;;;;;;;;;;;;;5007785;28;1429;-59
2021/04/30 14:15:16;;;;;;;;;;;;;;;;;;5007444;28;1236;-59
2021/04/30 14:17:42;;;;;;;;;;;;;;;;;;5009918;28;1145;-59
2021/04/30 14:20:08;;;;;;;;;;;;;;;;;;4985373;28;999;-59
2021/04/30 14:22:33;;;;;;;;;;;;;;;;;;5004278;28;1191;-58
2021/04/30 14:24:58;;;;;;;;;;;;;;;;;;5010741;28;1185;-59
2021/04/30 14:27:25;;;;;;;;;;;;;;;;;;5011896;28;1201;-59
2021/04/30 14:29:51;;;;;;;;;;;;;;;;;;5042272;28;1057;-60
2021/04/30 14:32:16;;;;;;;;;;;;;;;;;;5005904;28;1984;-59
2021/04/30 14:34:44;;;;;;;;;;;;;;;;;;5010083;28;1069;-59
2021/04/30 14:37:09;;;;;;;;;;;;;;;;;;5010981;28;1120;-59
2021/04/30 14:39:35;;;;;;;;;;;;;;;;;;5017001;28;1064;-59
2021/04/30 14:42:02;;;;;;;;;;;;;;;;;;5015123;28;1092;-59
2021/04/30 14:44:28;;;;;;;;;;;;;;;;;;5011368;28;1077;-59
2021/04/30 14:46:54;;;;;;;;;;;;;;;;;;5046687;28;1136;-60
2021/04/30 14:49:20;;;;;;;;;;;;;;;;;;5013926;28;1214;-59
2021/04/30 14:51:45;;;;;;;;;;;;;;;;;;5014976;28;1898;-59
2021/04/30 14:54:12;;;;;;;;;;;;;;;;;;5013842;28;1176;-59
2021/04/30 14:56:38;;;;;;;;;;;;;;;;;;5012301;28;1030;-59
2021/04/30 14:59:03;;;;;;;;;;;;;;;;;;5015055;28;1045;-59
2021/04/30 15:01:30;;;;;;;;;;;;;;;;;;5011470;28;1116;-59
2021/04/30 15:03:55;;;;;;;;;;;;;;;;;;5015460;28;1012;-59
2021/04/30 15:06:21;;;;;;;;;;;;;;;;;;5013931;28;1355;-59
2021/04/30 15:08:46;;;;;;;;;;;;;;;;;;5014594;28;1187;-60
2021/04/30 15:11:12;;;;;;;;;;;;;;;;;;5013464;28;1890;-59
2021/04/30 15:13:40;;;;;;;;;;;;;;;;;;5013388;28;1433;-59
2021/04/30 15:16:07;;;;;;;;;;;;;;;;;;5015296;28;1060;-59
2021/04/30 15:18:32;;;;;;;;;;;;;;;;;;5013213;28;1046;-59
2021/04/30 15:20:57;;;;;;;;;;;;;;;;;;5014251;28;974;-59
2021/04/30 15:23:23;;;;;;;;;;;;;;;;;;5015190;28;1030;-59
2021/04/30 15:25:49;;;;;;;;;;;;;;;;;;5015279;28;1067;-59
2021/04/30 15:28:14;;;;;;;;;;;;;;;;;;5012313;28;886;-59
2021/04/30 15:30:39;;;;;;;;;;;;;;;;;;5012737;28;1974;-59
2021/04/30 15:33:06;;;;;;;;;;;;;;;;;;5014559;28;984;-59
2021/04/30 15:35:33;;;;;;;;;;;;;;;;;;5011640;28;1029;-59
2021/04/30 15:37:59;;;;;;;;;;;;;;;;;;5014283;28;943;-59
2021/04/30 15:40:25;;;;;;;;;;;;;;;;;;5012954;28;1049;-59
2021/04/30 15:42:51;;;;;;;;;;;;;;;;;;5012216;28;950;-59
2021/04/30 15:45:16;;;;;;;;;;;;;;;;;;5013306;28;958;-59
2021/04/30 15:47:42;;;;;;;;;;;;;;;;;;5014254;28;950;-59
2021/04/30 15:50:11;;;;;;;;;;;;;;;;;;5010106;28;1982;-59
2021/04/30 15:52:39;;;;;;;;;;;;;;;;;;5013509;28;1049;-59
2021/04/30 15:55:08;;;;;;;;;;;;;;;;;;5013449;28;1047;-59
2021/04/30 15:57:33;;;;;;;;;;;;;;;;;;5012749;28;1139;-60
2021/04/30 15:59:59;;;;;;;;;;;;;;;;;;5014564;28;1041;-59
2021/04/30 16:02:24;;;;;;;;;;;;;;;;;;5016862;28;1015;-59
2021/04/30 16:04:49;;;;;;;;;;;;;;;;;;5019002;28;1111;-60
2021/04/30 16:07:15;;;;;;;;;;;;;;;;;;5015342;28;1482;-59
2021/04/30 16:09:40;;;;;;;;;;;;;;;;;;5020524;28;1064;-58
2021/04/30 16:12:06;;;;;;;;;;;;;;;;;;5016830;28;1898;-58
2021/04/30 16:14:32;;;;;;;;;;;;;;;;;;5013450;28;1513;-59
2021/04/30 16:16:57;;;;;;;;;;;;;;;;;;5016133;28;1048;-58
2021/04/30 16:19:22;;;;;;;;;;;;;;;;;;5018829;28;1021;-58
2021/04/30 16:21:48;;;;;;;;;;;;;;;;;;5017834;28;1104;-58
2021/04/30 16:24:14;;;;;;;;;;;;;;;;;;5017082;28;969;-58
2021/04/30 16:26:39;;;;;;;;;;;;;;;;;;5015977;28;1173;-58
2021/04/30 16:29:05;;;;;;;;;;;;;;;;;;5015424;28;1025;-58
2021/04/30 16:31:30;;;;;;;;;;;;;;;;;;5016028;28;1919;-58
2021/04/30 16:34:00;;;;;;;;;;;;;;;;;;5018249;28;978;-58
2021/04/30 16:36:26;;;;;;;;;;;;;;;;;;5016405;28;981;-58
2021/04/30 16:38:51;;;;;;;;;;;;;;;;;;5017486;28;1031;-58
2021/04/30 16:41:16;;;;;;;;;;;;;;;;;;5016761;28;974;-58
2021/04/30 16:43:42;;;;;;;;;;;;;;;;;;5016688;28;1015;-58
2021/04/30 16:46:14;;;;;;;;;;;;;;;;;;5011053;28;1013;-58
2021/04/30 16:48:44;;;;;;;;;;;;;;;;;;4965709;28;1088;-59
2021/04/30 16:51:09;;;;;;;;;;;;;;;;;;4997569;28;1898;-58
2021/04/30 16:53:35;;;;;;;;;;;;;;;;;;4965727;28;1151;-58
2021/04/30 16:56:00;;;;;;;;;;;;;;;;;;4961049;28;1113;-59
2021/04/30 16:58:26;;;;;;;;;;;;;;;;;;4964924;28;1084;-58
2021/04/30 17:00:51;;;;;;;;;;;;;;;;;;4980728;28;1085;-58
2021/04/30 17:03:17;;;;;;;;;;;;;;;;;;4966637;28;1017;-58